Time;durP1;ratioP1;P1;durP2;ratioP2;P2;SDS_P1;SDS_P2;PMS_P1;PMS_P2;Temp;Humidity;BMP_temperature;BMP_pressure;BME280_temperature;BME280_humidity;BME280_pressure;Samples;Min_cycle;Max_cycle;Signal;HPM_P1;HPM_P2
2023/06/04 00:00:58;;;;;;;56.03;29.20;;;;;;;9.85;52.93;101900.19;5073449;28;20072;-56
2023/06/04 00:03:24;;;;;;;49.33;27.02;;;;;;;9.90;53.32;101897.44;5073461;28;20095;-56
2023/06/04 00:05:51;;;;;;;52.72;25.70;;;;;;;9.87;52.92;101898.41;5071737;28;20087;-57
2023/06/04 00:08:18;;;;;;;112.10;49.40;;;;;;;9.84;53.13;101902.88;5073133;28;20059;-55
2023/06/04 00:10:44;;;;;;;34.38;18.45;;;;;;;9.84;53.12;101893.19;5073482;28;20393;-55
2023/06/04 00:13:11;;;;;;;29.30;14.73;;;;;;;9.79;52.39;101897.72;5076194;28;20044;-55
2023/06/04 00:15:38;;;;;;;24.08;11.68;;;;;;;9.77;51.67;101890.72;5073043;28;20056;-55
2023/06/04 00:18:04;;;;;;;22.88;8.52;;;;;;;9.73;52.40;101890.81;5075015;28;20376;-56
2023/06/04 00:20:31;;;;;;;17.48;7.60;;;;;;;9.65;52.76;101890.13;5071800;28;20052;-55
2023/06/04 00:22:57;;;;;;;19.25;8.07;;;;;;;9.59;52.64;101892.03;5071177;28;20144;-55
2023/06/04 00:25:24;;;;;;;22.30;10.98;;;;;;;9.47;52.59;101880.00;5053726;28;20057;-56
2023/06/04 00:27:51;;;;;;;18.63;11.60;;;;;;;9.45;52.47;101884.41;5071729;28;20136;-54
2023/06/04 00:30:18;;;;;;;62.67;27.08;;;;;;;9.44;52.43;101877.41;5070934;28;20062;-55
2023/06/04 00:32:46;;;;;;;86.05;38.33;;;;;;;9.45;52.70;101880.03;5071685;28;20123;-56
2023/06/04 00:35:13;;;;;;;45.22;22.60;;;;;;;9.41;53.29;101877.50;5074742;28;20049;-55
2023/06/04 00:37:40;;;;;;;41.33;18.77;;;;;;;9.39;53.35;101874.03;5084946;28;20047;-55
2023/06/04 00:40:07;;;;;;;29.63;14.10;;;;;;;9.33;53.01;101875.91;5073415;28;20147;-55
2023/06/04 00:42:33;;;;;;;16.13;8.80;;;;;;;9.18;53.16;101873.59;5073897;28;20490;-55
2023/06/04 00:45:00;;;;;;;13.90;7.40;;;;;;;9.15;53.47;101881.56;5055404;28;20055;-55
2023/06/04 00:47:27;;;;;;;11.98;6.18;;;;;;;9.03;53.64;101877.44;5091800;28;20133;-56
2023/06/04 00:49:56;;;;;;;13.98;6.72;;;;;;;8.89;54.12;101877.72;5087350;28;20062;-56
2023/06/04 00:52:24;;;;;;;13.60;6.78;;;;;;;8.84;54.26;101870.81;5075053;28;20151;-56
2023/06/04 00:54:51;;;;;;;20.00;6.82;;;;;;;8.85;54.61;101872.56;5074115;28;20052;-56
2023/06/04 00:57:18;;;;;;;14.57;8.80;;;;;;;8.93;53.99;101871.47;5063533;28;20492;-57
2023/06/04 00:59:45;;;;;;;19.70;9.15;;;;;;;9.06;54.60;101874.72;5070786;28;20048;-56
2023/06/04 01:02:15;;;;;;;68.57;30.73;;;;;;;9.04;54.26;101873.00;5075814;28;20511;-56
2023/06/04 01:04:49;;;;;;;24.47;14.43;;;;;;;9.03;54.44;101881.84;5065324;28;20346;-56
2023/06/04 01:07:17;;;;;;;43.90;23.13;;;;;;;9.02;54.30;101874.81;5061097;28;20155;-57
2023/06/04 01:09:45;;;;;;;31.77;15.43;;;;;;;9.02;54.03;101885.38;5067094;28;20072;-56
2023/06/04 01:12:12;;;;;;;26.30;14.88;;;;;;;8.96;54.82;101878.47;5063262;28;20133;-57
2023/06/04 01:14:38;;;;;;;25.85;14.05;;;;;;;8.96;54.96;101879.34;5064171;28;20056;-56
2023/06/04 01:17:19;;;;;;;25.30;14.40;;;;;;;8.89;55.31;101875.09;5066598;28;20047;-56
2023/06/04 01:19:51;;;;;;;15.65;8.80;;;;;;;8.88;55.51;101870.72;5061367;28;20486;-55
2023/06/04 01:22:35;;;;;;;17.20;7.85;;;;;;;8.78;55.25;101863.91;5065732;28;20083;-56
2023/06/04 01:25:19;;;;;;;14.98;8.95;;;;;;;8.75;55.13;101870.09;5063589;28;20126;-56
2023/06/04 01:27:50;;;;;;;15.35;8.65;;;;;;;8.74;55.15;101870.13;5061219;28;20124;-56
2023/06/04 01:30:17;;;;;;;19.27;10.85;;;;;;;8.72;55.28;101866.66;5066302;28;20052;-58
2023/06/04 01:32:44;;;;;;;18.45;10.65;;;;;;;8.66;55.63;101867.63;5064432;28;20131;-56
2023/06/04 01:35:11;;;;;;;15.20;8.45;;;;;;;8.60;55.98;101873.91;5061908;28;20062;-55
2023/06/04 01:37:38;;;;;;;23.85;10.10;;;;;;;8.59;56.04;101872.16;5066073;28;20091;-56
2023/06/04 01:40:05;;;;;;;16.85;9.27;;;;;;;8.59;56.35;101864.25;5061191;28;20055;-58
2023/06/04 01:42:32;;;;;;;17.83;8.90;;;;;;;8.62;55.67;101858.91;5065498;28;20062;-56
2023/06/04 01:44:58;;;;;;;14.70;7.68;;;;;;;8.56;55.56;101869.56;5068634;28;20060;-58
2023/06/04 01:47:25;;;;;;;14.98;8.38;;;;;;;8.55;55.92;101865.22;5063373;28;20498;-56
2023/06/04 01:49:52;;;;;;;24.27;7.53;;;;;;;8.48;56.30;101866.22;5082074;28;20045;-56
2023/06/04 01:52:20;;;;;;;18.55;9.88;;;;;;;8.46;56.07;101865.38;5059888;28;20064;-56
2023/06/04 01:54:52;;;;;;;21.20;8.30;;;;;;;8.43;56.68;101870.72;5060106;28;20041;-56
2023/06/04 01:57:20;;;;;;;;;;;;;;;8.27;56.97;101865.72;5059571;28;20059;-55
2023/06/04 01:59:46;;;;;;;32.22;12.77;;;;;;;8.26;56.92;101868.38;5057774;28;20732;-56
2023/06/04 02:02:14;;;;;;;21.52;12.18;;;;;;;8.18;57.25;101865.88;5063713;28;20052;-56
2023/06/04 02:04:41;;;;;;;24.25;11.13;;;;;;;8.14;57.08;101865.94;5064927;28;20052;-56
2023/06/04 02:07:13;;;;;;;9.25;4.50;;;;;;;8.09;57.25;101859.00;5064306;28;20501;-56
2023/06/04 02:09:41;;;;;;;6.85;4.00;;;;;;;8.08;56.76;101864.31;5068333;28;20468;-57
2023/06/04 02:12:08;;;;;;;15.30;5.53;;;;;;;8.00;57.16;101860.94;5068203;28;20040;-57
2023/06/04 02:14:35;;;;;;;15.32;6.72;;;;;;;7.96;57.48;101861.88;5084028;28;20052;-57
2023/06/04 02:17:02;;;;;;;24.65;8.50;;;;;;;7.97;57.51;101855.72;5062780;28;20110;-58
2023/06/04 02:19:28;;;;;;;7.60;4.80;;;;;;;7.98;57.44;101863.59;5065536;28;20056;-56
2023/06/04 02:21:55;;;;;;;10.30;5.70;;;;;;;7.96;57.57;101846.97;5076841;28;20604;-56
2023/06/04 02:24:22;;;;;;;21.67;3.60;;;;;;;7.93;57.76;101854.91;5062826;28;20049;-56
2023/06/04 02:26:49;;;;;;;11.07;4.82;;;;;;;7.86;58.43;101854.13;5067449;28;20483;-56
2023/06/04 02:29:15;;;;;;;5.88;4.00;;;;;;;7.79;58.42;101855.13;5069589;28;20662;-56
2023/06/04 02:31:42;;;;;;;7.25;3.75;;;;;;;7.76;58.66;101852.53;5066856;28;20048;-55
2023/06/04 02:34:09;;;;;;;6.65;3.88;;;;;;;7.71;58.84;101857.00;5081088;28;20094;-58
2023/06/04 02:36:35;;;;;;;13.85;8.43;;;;;;;7.65;58.51;101860.63;5063887;28;20430;-57
2023/06/04 02:39:03;;;;;;;9.60;4.47;;;;;;;7.64;58.80;101860.63;5046395;28;20052;-56
2023/06/04 02:41:29;;;;;;;7.80;4.00;;;;;;;7.64;58.24;101858.00;5068583;28;20040;-56
2023/06/04 02:43:56;;;;;;;9.15;3.80;;;;;;;7.62;58.30;101860.66;5066528;28;20125;-56
2023/06/04 02:46:23;;;;;;;6.45;3.50;;;;;;;7.65;58.78;101865.88;5066211;28;20094;-57
2023/06/04 02:48:49;;;;;;;9.32;4.15;;;;;;;7.66;58.58;101864.97;5060938;28;20362;-57
2023/06/04 02:51:17;;;;;;;7.15;3.42;;;;;;;7.64;58.76;101860.63;5065953;28;20127;-56
2023/06/04 02:53:45;;;;;;;10.45;4.10;;;;;;;7.59;59.11;101865.97;5078655;28;20049;-56
2023/06/04 02:56:12;;;;;;;21.17;8.27;;;;;;;7.55;59.45;101859.00;5066481;28;20047;-55
2023/06/04 02:58:49;;;;;;;13.50;4.40;;;;;;;7.54;59.57;101867.81;5072907;28;20051;-58
2023/06/04 03:01:23;;;;;;;7.43;3.38;;;;;;;7.53;59.45;101866.91;5066894;28;20048;-56
2023/06/04 03:03:50;;;;;;;6.22;3.03;;;;;;;7.58;59.19;101873.88;5064112;28;20078;-56
2023/06/04 03:06:20;;;;;;;5.15;3.38;;;;;;;7.56;59.12;101865.16;5065525;28;20114;-55
2023/06/04 03:08:47;;;;;;;5.60;2.55;;;;;;;7.55;59.29;101861.63;5065475;28;20048;-56
2023/06/04 03:11:14;;;;;;;6.78;3.10;;;;;;;7.44;59.50;101863.59;5064772;28;20426;-56
2023/06/04 03:13:40;;;;;;;10.27;4.03;;;;;;;7.35;59.92;101861.94;5064133;28;20067;-56
2023/06/04 03:16:10;;;;;;;5.20;2.83;;;;;;;7.48;60.33;101863.50;5066319;28;20128;-56
2023/06/04 03:18:38;;;;;;;6.15;3.00;;;;;;;7.54;60.93;101865.19;5063195;28;20040;-56
2023/06/04 03:21:05;;;;;;;8.35;3.17;;;;;;;7.57;60.34;101872.13;5065415;28;20445;-56
2023/06/04 03:23:33;;;;;;;21.92;3.80;;;;;;;7.56;59.96;101862.53;5061264;28;20121;-56
2023/06/04 03:26:04;;;;;;;4.45;2.70;;;;;;;7.52;59.81;101862.56;5077542;28;20149;-56
2023/06/04 03:28:33;;;;;;;4.10;2.28;;;;;;;7.51;60.26;101866.06;5062585;28;20048;-55
2023/06/04 03:30:59;;;;;;;5.93;2.75;;;;;;;7.50;60.23;101867.00;5062653;28;20056;-56
2023/06/04 03:33:26;;;;;;;7.55;3.10;;;;;;;7.59;60.20;101865.09;5063374;28;20856;-56
2023/06/04 03:35:53;;;;;;;5.63;3.00;;;;;;;7.64;59.75;101873.81;5052492;28;20064;-56
2023/06/04 03:38:19;;;;;;;5.60;2.65;;;;;;;7.61;60.46;101873.84;5061988;28;20052;-57
2023/06/04 03:40:46;;;;;;;5.43;2.85;;;;;;;7.60;60.42;101874.72;5063121;28;20075;-56
2023/06/04 03:43:13;;;;;;;5.75;3.10;;;;;;;7.58;61.01;101873.88;5065334;28;20147;-57
2023/06/04 03:45:39;;;;;;;3.95;3.28;;;;;;;7.56;60.77;101878.31;5059609;28;20431;-56
2023/06/04 03:48:06;;;;;;;6.22;2.67;;;;;;;7.51;60.44;101879.22;5063278;28;20419;-56
2023/06/04 03:50:33;;;;;;;5.15;3.15;;;;;;;7.54;60.32;101876.56;5064173;28;20130;-56
2023/06/04 03:52:59;;;;;;;5.80;3.08;;;;;;;7.58;60.42;101873.88;5061749;28;20412;-55
2023/06/04 03:55:26;;;;;;;5.38;2.72;;;;;;;7.63;60.27;101875.53;5060706;28;20055;-55
2023/06/04 03:57:53;;;;;;;10.50;2.53;;;;;;;7.72;60.09;101871.91;5062097;28;20094;-57
2023/06/04 04:00:20;;;;;;;4.18;3.00;;;;;;;7.85;59.71;101868.19;5062678;28;20447;-57
2023/06/04 04:02:47;;;;;;;5.00;2.85;;;;;;;7.92;59.50;101873.34;5060860;28;20048;-57
2023/06/04 04:05:14;;;;;;;11.23;3.15;;;;;;;7.98;59.67;101870.63;5063134;28;20453;-56
2023/06/04 04:07:43;;;;;;;6.97;2.75;;;;;;;8.04;59.89;101870.50;5060583;28;20056;-57
2023/06/04 04:10:10;;;;;;;5.82;3.17;;;;;;;8.09;59.83;101871.28;5063949;28;20541;-57
2023/06/04 04:12:36;;;;;;;7.07;3.65;;;;;;;8.25;59.00;101874.53;5061712;28;20055;-56
2023/06/04 04:15:04;;;;;;;11.15;3.10;;;;;;;8.38;58.55;101877.81;5062510;28;20052;-56
2023/06/04 04:17:31;;;;;;;6.78;2.78;;;;;;;8.39;58.81;101879.56;5059825;28;20060;-56
2023/06/04 04:19:57;;;;;;;5.15;2.88;;;;;;;8.49;59.78;101875.88;5063664;28;20062;-56
2023/06/04 04:22:24;;;;;;;5.75;2.30;;;;;;;8.60;59.84;101876.53;5078041;28;20056;-57
2023/06/04 04:24:51;;;;;;;4.82;2.38;;;;;;;8.70;59.87;101884.28;5062104;28;20114;-58
2023/06/04 04:27:18;;;;;;;6.85;3.25;;;;;;;8.71;59.58;101883.34;5061061;28;20412;-56
2023/06/04 04:29:47;;;;;;;6.82;2.58;;;;;;;8.74;58.94;101875.38;5062018;28;20462;-57
2023/06/04 04:32:16;;;;;;;5.03;2.90;;;;;;;8.74;58.41;101886.78;5059597;28;20142;-56
2023/06/04 04:34:51;;;;;;;5.82;2.70;;;;;;;8.83;57.95;101880.50;5062236;28;20060;-56
2023/06/04 04:37:20;;;;;;;7.15;2.85;;;;;;;8.90;57.95;101879.44;5061693;28;20052;-56
2023/06/04 04:39:49;;;;;;;4.82;2.38;;;;;;;8.89;58.01;101875.09;5078492;28;20079;-56
2023/06/04 04:42:16;;;;;;;6.47;3.55;;;;;;;9.06;57.35;101881.78;5063828;28;20048;-56
2023/06/04 04:44:47;;;;;;;5.07;2.72;;;;;;;9.13;56.83;101872.81;5061497;28;20072;-57
2023/06/04 04:47:15;;;;;;;6.28;2.70;;;;;;;9.26;56.65;101881.34;5060155;28;20127;-56
2023/06/04 04:49:42;;;;;;;4.78;2.63;;;;;;;9.33;56.36;101883.81;5060328;28;20080;-56
2023/06/04 04:52:08;;;;;;;5.00;2.70;;;;;;;9.37;56.27;101888.09;5061409;28;20469;-56
2023/06/04 04:54:35;;;;;;;6.13;2.47;;;;;;;9.51;56.33;101887.81;5060595;28;20223;-56
2023/06/04 04:57:02;;;;;;;5.45;2.75;;;;;;;9.67;55.85;101885.66;5062004;28;20043;-56
2023/06/04 04:59:39;;;;;;;5.93;3.42;;;;;;;9.77;56.27;101896.00;5057010;28;20362;-56
2023/06/04 05:02:06;;;;;;;5.15;3.25;;;;;;;9.77;56.35;101891.59;5060641;28;20045;-56
2023/06/04 05:04:33;;;;;;;6.03;2.60;;;;;;;9.91;55.96;101893.91;5058504;28;20052;-56
2023/06/04 05:07:00;;;;;;;5.55;2.42;;;;;;;9.98;55.97;101886.69;5059916;28;20056;-56
2023/06/04 05:09:27;;;;;;;6.72;3.22;;;;;;;10.05;55.69;101891.78;5060751;28;20048;-56
2023/06/04 05:11:53;;;;;;;5.78;3.20;;;;;;;10.11;55.79;101891.63;5061288;28;20053;-56
2023/06/04 05:14:20;;;;;;;6.60;2.42;;;;;;;10.21;55.63;101892.25;5042931;28;20052;-56
2023/06/04 05:16:48;;;;;;;4.53;2.60;;;;;;;10.31;54.66;101892.00;5062502;28;20127;-56
2023/06/04 05:19:16;;;;;;;4.40;2.55;;;;;;;10.31;54.81;101894.66;5059711;28;20045;-57
2023/06/04 05:21:44;;;;;;;5.75;3.50;;;;;;;10.41;55.04;101888.25;5063287;28;20045;-55
2023/06/04 05:24:10;;;;;;;6.05;2.55;;;;;;;10.53;55.06;101897.66;5066405;28;20053;-56
2023/06/04 05:26:39;;;;;;;5.13;2.55;;;;;;;10.67;53.69;101895.47;5059974;28;20057;-57
2023/06/04 05:29:07;;;;;;;5.25;2.20;;;;;;;10.77;53.53;101902.25;5059707;28;20045;-57
2023/06/04 05:31:34;;;;;;;5.55;2.58;;;;;;;10.86;53.56;101894.97;5061885;28;20045;-57
2023/06/04 05:34:01;;;;;;;7.75;2.63;;;;;;;10.83;53.36;101902.06;5062629;28;20086;-57
2023/06/04 05:36:30;;;;;;;3.95;2.25;;;;;;;10.89;53.95;101900.16;5078355;28;20084;-56
2023/06/04 05:38:57;;;;;;;6.05;2.50;;;;;;;10.95;53.21;101902.63;5060987;28;20040;-56
2023/06/04 05:41:25;;;;;;;4.00;2.20;;;;;;;11.04;52.98;101899.72;5061113;28;20048;-57
2023/06/04 05:43:52;;;;;;;4.72;2.58;;;;;;;11.17;51.89;101910.81;5065463;28;20495;-57
2023/06/04 05:46:19;;;;;;;5.78;2.25;;;;;;;11.39;52.22;101911.00;5065484;28;20079;-57
2023/06/04 05:48:46;;;;;;;4.05;2.85;;;;;;;11.52;51.47;101911.50;5080360;28;20087;-57
2023/06/04 05:51:15;;;;;;;6.28;1.80;;;;;;;11.80;50.92;101911.47;5078247;28;20056;-57
2023/06/04 05:53:42;;;;;;;6.63;2.03;;;;;;;11.85;50.84;101912.22;5061644;28;20381;-56
2023/06/04 05:56:09;;;;;;;6.75;2.25;;;;;;;11.94;50.79;101919.88;5062998;28;20067;-57
2023/06/04 05:58:36;;;;;;;3.97;1.88;;;;;;;12.15;50.38;101906.84;5062135;28;20130;-57
2023/06/04 06:01:03;;;;;;;7.18;1.50;;;;;;;12.16;50.37;101908.56;5062341;28;20048;-57
2023/06/04 06:03:30;;;;;;;3.88;2.10;;;;;;;12.24;50.26;101910.97;5067031;28;20139;-57
2023/06/04 06:05:59;;;;;;;5.57;1.98;;;;;;;12.45;48.96;101914.66;5062794;28;20045;-56
2023/06/04 06:08:26;;;;;;;3.78;1.70;;;;;;;12.58;49.16;101910.66;5065922;28;20037;-57
2023/06/04 06:10:53;;;;;;;9.55;1.92;;;;;;;12.72;48.47;101917.25;5064893;28;20388;-56
2023/06/04 06:13:20;;;;;;;4.20;1.75;;;;;;;12.93;46.89;101911.19;5062420;28;20152;-57
2023/06/04 06:15:49;;;;;;;6.13;1.75;;;;;;;13.11;46.35;101911.41;5067336;28;20047;-56
2023/06/04 06:18:16;;;;;;;2.58;1.75;;;;;;;13.32;45.72;101907.97;5066603;28;20425;-56
2023/06/04 06:20:43;;;;;;;4.53;1.50;;;;;;;13.51;44.37;101902.78;5065921;28;20498;-57
2023/06/04 06:23:09;;;;;;;3.92;1.73;;;;;;;13.63;45.11;101906.72;5050028;28;20059;-56
2023/06/04 06:25:36;;;;;;;3.60;1.77;;;;;;;13.79;44.88;101914.09;5082817;28;20087;-57
2023/06/04 06:28:03;;;;;;;3.00;1.70;;;;;;;13.90;44.77;101919.84;5064196;28;20049;-56
2023/06/04 06:30:29;;;;;;;2.90;1.50;;;;;;;14.03;44.14;101921.06;5067406;28;20135;-57
2023/06/04 06:32:56;;;;;;;3.58;1.20;;;;;;;14.09;44.52;101920.81;5065511;28;20052;-56
2023/06/04 06:35:23;;;;;;;3.90;1.60;;;;;;;14.21;42.06;101922.09;5066541;28;20434;-57
2023/06/04 06:37:49;;;;;;;5.53;1.33;;;;;;;14.40;40.67;101922.19;5063731;28;20143;-56
2023/06/04 06:40:16;;;;;;;3.28;1.35;;;;;;;14.61;39.27;101916.88;5066215;28;20055;-56
2023/06/04 06:42:48;;;;;;;4.85;1.27;;;;;;;14.73;39.00;101926.97;5064788;28;20420;-57
2023/06/04 06:45:15;;;;;;;3.78;1.40;;;;;;;14.92;38.51;101926.16;5066661;28;20049;-56
2023/06/04 06:47:41;;;;;;;4.90;1.23;;;;;;;15.07;38.08;101928.09;5068336;28;20382;-56
2023/06/04 06:50:08;;;;;;;4.93;1.05;;;;;;;15.15;38.19;101928.63;5058635;28;21112;-58
2023/06/04 06:52:35;;;;;;;2.88;1.38;;;;;;;15.27;38.15;101932.53;5062885;28;20151;-58
2023/06/04 06:55:03;;;;;;;2.97;0.98;;;;;;;15.37;37.90;101932.97;5061221;28;20441;-57
2023/06/04 06:57:30;;;;;;;1.95;1.10;;;;;;;15.47;38.04;101928.06;5067935;28;20945;-58
2023/06/04 06:59:56;;;;;;;2.78;1.10;;;;;;;15.54;37.40;101934.81;5071156;28;20127;-57
2023/06/04 07:02:23;;;;;;;4.93;1.40;;;;;;;15.65;37.32;101936.97;5087771;28;20139;-56
2023/06/04 07:04:50;;;;;;;2.83;1.08;;;;;;;15.80;37.01;101928.25;5071887;28;20071;-55
2023/06/04 07:07:17;;;;;;;4.40;1.00;;;;;;;15.93;36.45;101932.03;5072531;28;20139;-56
2023/06/04 07:09:44;;;;;;;5.93;1.10;;;;;;;16.07;36.16;101933.16;5069659;28;20041;-56
2023/06/04 07:12:11;;;;;;;3.00;1.23;;;;;;;16.10;36.80;101933.88;5077354;28;20193;-58
2023/06/04 07:14:37;;;;;;;4.03;0.95;;;;;;;16.13;36.08;101936.41;5072595;28;20044;-57
2023/06/04 07:17:04;;;;;;;3.75;1.15;;;;;;;16.29;34.90;101933.78;5072607;28;20080;-57
2023/06/04 07:19:30;;;;;;;3.35;0.98;;;;;;;16.47;34.12;101931.97;5073244;28;20048;-57
2023/06/04 07:21:57;;;;;;;3.40;1.50;;;;;;;16.54;34.16;101937.00;5066817;28;20122;-57
2023/06/04 07:24:24;;;;;;;2.88;1.17;;;;;;;16.57;34.17;101929.69;5053392;28;20076;-58
2023/06/04 07:26:52;;;;;;;1.92;1.40;;;;;;;16.78;34.06;101934.88;5073273;28;20573;-57
2023/06/04 07:29:18;;;;;;;2.30;0.77;;;;;;;16.94;33.88;101930.47;5072336;28;20049;-57
2023/06/04 07:31:45;;;;;;;1.23;0.75;;;;;;;17.09;32.95;101933.25;5070853;28;20051;-58
2023/06/04 07:34:12;;;;;;;2.28;0.93;;;;;;;17.06;33.04;101929.78;5087922;28;20113;-58
2023/06/04 07:36:39;;;;;;;3.25;1.08;;;;;;;17.10;32.94;101929.63;5054481;28;20102;-57
2023/06/04 07:39:05;;;;;;;5.82;1.05;;;;;;;17.23;32.43;101926.19;5072748;28;20051;-56
2023/06/04 07:41:32;;;;;;;4.93;1.20;;;;;;;17.15;32.42;101924.91;5069707;28;20139;-56
2023/06/04 07:43:58;;;;;;;3.85;0.98;;;;;;;17.17;32.22;101926.53;5073138;28;20552;-56
2023/06/04 07:46:25;;;;;;;3.45;0.80;;;;;;;17.22;31.76;101924.47;5073713;28;20135;-56
2023/06/04 07:48:51;;;;;;;3.17;0.75;;;;;;;17.20;31.93;101925.50;5071164;28;20051;-56
2023/06/04 07:51:19;;;;;;;2.78;0.85;;;;;;;17.36;31.89;101923.72;5067542;28;20079;-57
2023/06/04 07:53:46;;;;;;;3.28;1.08;;;;;;;17.51;31.58;101929.16;5068946;28;20049;-57
2023/06/04 07:56:12;;;;;;;3.40;0.88;;;;;;;17.75;30.74;101922.41;5070875;28;20052;-56
2023/06/04 07:58:40;;;;;;;1.98;0.77;;;;;;;17.55;30.36;101930.69;5070301;28;20048;-56
2023/06/04 08:01:07;;;;;;;6.15;0.80;;;;;;;17.78;30.58;101927.59;5064254;28;20122;-57
2023/06/04 08:03:34;;;;;;;3.15;0.90;;;;;;;18.03;30.50;101926.19;5071761;28;20059;-57
2023/06/04 08:06:01;;;;;;;2.75;0.90;;;;;;;18.06;30.22;101923.31;5070902;28;20052;-56
2023/06/04 08:08:30;;;;;;;1.50;0.75;;;;;;;18.21;30.89;101926.03;5069425;28;20044;-57
2023/06/04 08:10:57;;;;;;;2.53;1.00;;;;;;;18.36;30.41;101919.78;5070019;28;20464;-57
2023/06/04 08:13:24;;;;;;;3.70;1.23;;;;;;;18.30;29.00;101922.81;5069761;28;20414;-56
2023/06/04 08:15:51;;;;;;;2.53;0.80;;;;;;;18.31;29.53;101914.72;5070686;28;20056;-57
2023/06/04 08:18:17;;;;;;;4.07;1.10;;;;;;;18.21;29.29;101923.38;5069626;28;20048;-56
2023/06/04 08:20:44;;;;;;;7.03;0.90;;;;;;;18.35;29.39;101920.72;5070514;28;20477;-56
2023/06/04 08:23:12;;;;;;;1.83;0.60;;;;;;;18.55;29.36;101922.19;5070390;28;20102;-56
2023/06/04 08:25:38;;;;;;;4.78;0.73;;;;;;;18.71;28.78;101922.13;5069217;28;20060;-57
2023/06/04 08:28:05;;;;;;;2.28;0.70;;;;;;;18.88;28.20;101924.66;5070141;28;20418;-57
2023/06/04 08:30:35;;;;;;;1.05;0.50;;;;;;;18.88;28.41;101923.78;5071087;28;20056;-58
2023/06/04 08:33:02;;;;;;;4.53;0.70;;;;;;;18.83;28.42;101926.78;5066893;28;20767;-57
2023/06/04 08:35:29;;;;;;;4.45;0.77;;;;;;;18.80;28.35;101926.03;5069297;28;20048;-56
2023/06/04 08:37:56;;;;;;;5.68;0.90;;;;;;;18.96;28.58;101932.22;5074826;28;20048;-57
2023/06/04 08:40:22;;;;;;;2.42;0.95;;;;;;;19.06;28.79;101932.47;5071835;28;20053;-57
2023/06/04 08:42:50;;;;;;;3.13;1.10;;;;;;;19.15;28.41;101931.06;5070953;28;20181;-56
2023/06/04 08:45:20;;;;;;;3.55;0.70;;;;;;;19.08;27.55;101935.94;5083108;28;20048;-56
2023/06/04 08:47:50;;;;;;;4.13;0.53;;;;;;;19.14;27.87;101929.31;5069375;28;20052;-57
2023/06/04 08:50:19;;;;;;;3.92;1.05;;;;;;;18.88;27.72;101930.03;5068726;28;20392;-57
2023/06/04 08:52:46;;;;;;;5.53;1.35;;;;;;;18.82;28.44;101925.00;5051892;28;20082;-55
2023/06/04 08:55:14;;;;;;;3.33;0.70;;;;;;;19.16;27.21;101928.28;5080546;28;20044;-55
2023/06/04 08:57:41;;;;;;;5.05;1.00;;;;;;;19.44;27.31;101929.19;5074757;28;20083;-55
2023/06/04 09:00:08;;;;;;;3.38;0.75;;;;;;;19.19;26.79;101930.78;5071423;28;20413;-56
2023/06/04 09:02:38;;;;;;;7.38;0.82;;;;;;;19.29;26.74;101928.38;5079294;28;20131;-56
2023/06/04 09:05:08;;;;;;;1.73;0.60;;;;;;;19.50;26.49;101930.59;5071590;28;20436;-55
2023/06/04 09:07:38;;;;;;;1.70;0.65;;;;;;;19.60;27.15;101924.56;5075867;28;20439;-56
2023/06/04 09:10:08;;;;;;;2.97;0.85;;;;;;;19.39;27.47;101934.00;5070722;28;20075;-55
2023/06/04 09:12:43;;;;;;;1.58;0.82;;;;;;;19.71;26.70;101933.72;5070332;28;20044;-56
2023/06/04 09:15:11;;;;;;;1.77;0.90;;;;;;;19.89;26.70;101927.16;5077613;28;20044;-56
2023/06/04 09:17:37;;;;;;;6.18;0.80;;;;;;;19.80;25.95;101934.00;5079291;28;20044;-55
2023/06/04 09:20:08;;;;;;;3.45;0.82;;;;;;;19.97;26.18;101930.19;5068834;28;20049;-55
2023/06/04 09:22:36;;;;;;;1.65;0.70;;;;;;;20.05;26.12;101928.84;5077824;28;20052;-56
2023/06/04 09:25:08;;;;;;;5.28;1.02;;;;;;;20.16;26.44;101926.28;5070676;28;20518;-55
2023/06/04 09:27:41;;;;;;;2.47;0.80;;;;;;;20.05;25.80;101931.50;5070911;28;20135;-55
2023/06/04 09:30:09;;;;;;;1.98;0.98;;;;;;;19.89;25.78;101926.31;5069508;28;20052;-56
2023/06/04 09:32:36;;;;;;;2.75;1.10;;;;;;;19.76;25.93;101929.81;5071195;28;20061;-56
2023/06/04 09:35:26;;;;;;;8.43;1.73;;;;;;;20.14;26.52;101933.59;5070966;28;20048;-56
2023/06/04 09:37:57;;;;;;;6.43;3.08;;;;;;;20.36;25.86;101930.28;5070046;28;20083;-56
2023/06/04 09:40:24;;;;;;;;;;;;;;;20.47;25.24;101933.09;5060763;28;20059;-55
2023/06/04 09:42:54;;;;;;;4.20;0.80;;;;;;;20.35;25.48;101937.50;5074622;28;19920;-55
2023/06/04 09:45:31;;;;;;;;;;;;;;;20.34;25.57;101932.22;5069736;28;20078;-56
2023/06/04 09:47:59;;;;;;;2.70;0.93;;;;;;;20.59;25.13;101931.38;5071886;28;19921;-56
2023/06/04 09:50:30;;;;;;;3.63;1.55;;;;;;;20.45;25.48;101926.09;5069010;28;20048;-56
2023/06/04 09:52:57;;;;;;;2.63;0.90;;;;;;;20.50;25.21;101926.66;5075686;28;20079;-56
2023/06/04 09:55:25;;;;;;;2.35;0.75;;;;;;;20.59;24.82;101915.25;5075679;28;20131;-56
2023/06/04 09:57:52;;;;;;;4.20;1.00;;;;;;;20.69;25.16;101916.38;5070190;28;20106;-56
2023/06/04 10:00:22;;;;;;;3.47;0.60;;;;;;;21.02;25.04;101920.34;5069791;28;20120;-56
2023/06/04 10:02:53;;;;;;;2.20;0.60;;;;;;;21.05;24.74;101917.44;5070777;28;20412;-56
2023/06/04 10:05:21;;;;;;;2.67;0.85;;;;;;;20.99;25.03;101925.94;5067662;28;20220;-56
2023/06/04 10:07:51;;;;;;;5.20;0.68;;;;;;;21.13;24.59;101916.00;5070576;28;20139;-56
2023/06/04 10:10:21;;;;;;;7.35;1.42;;;;;;;21.40;24.32;101916.69;5071541;28;20136;-56
2023/06/04 10:12:54;;;;;;;3.28;1.02;;;;;;;21.50;23.98;101916.91;5072902;28;20079;-55
2023/06/04 10:15:21;;;;;;;5.68;0.90;;;;;;;21.46;24.08;101912.69;5069338;28;20048;-55
2023/06/04 10:17:50;;;;;;;2.08;0.80;;;;;;;21.36;24.19;101917.88;5070145;28;20052;-56
2023/06/04 10:20:18;;;;;;;2.42;0.70;;;;;;;21.50;24.09;101921.44;5069667;28;20037;-56
2023/06/04 10:22:44;;;;;;;6.05;1.08;;;;;;;21.71;23.87;101909.09;5068786;28;20087;-55
2023/06/04 10:25:12;;;;;;;4.07;0.82;;;;;;;21.84;23.97;101918.91;5069713;28;20049;-55
2023/06/04 10:27:39;;;;;;;8.40;1.02;;;;;;;21.87;23.92;101913.31;5070421;28;20669;-55
2023/06/04 10:30:06;;;;;;;1.73;0.90;;;;;;;22.04;23.11;101910.19;5065784;28;20077;-56
2023/06/04 10:32:34;;;;;;;8.25;1.35;;;;;;;22.14;23.30;101903.13;5072575;28;20048;-56
2023/06/04 10:35:07;;;;;;;3.55;1.02;;;;;;;22.07;23.44;101909.97;5073751;28;20076;-55
2023/06/04 10:37:34;;;;;;;8.02;0.90;;;;;;;22.15;22.89;101910.25;5078232;28;20040;-56
2023/06/04 10:40:00;;;;;;;4.28;1.08;;;;;;;22.12;23.00;101913.16;5083401;28;20357;-55
2023/06/04 10:42:38;;;;;;;3.72;0.93;;;;;;;22.47;23.03;101906.91;5078596;28;20159;-55
2023/06/04 10:45:07;;;;;;;2.20;0.75;;;;;;;22.84;22.31;101912.09;5072953;28;20045;-55
2023/06/04 10:47:37;;;;;;;2.85;0.82;;;;;;;22.95;21.80;101911.25;5073705;28;20131;-56
2023/06/04 10:50:10;;;;;;;2.53;0.80;;;;;;;23.57;21.04;101909.84;5072445;28;20349;-56
2023/06/04 10:52:39;;;;;;;3.30;0.90;;;;;;;24.67;20.12;101912.28;5072548;28;20127;-55
2023/06/04 10:55:08;;;;;;;6.40;1.00;;;;;;;25.78;19.31;101902.38;5072785;28;20058;-56
2023/06/04 10:57:35;;;;;;;4.03;0.70;;;;;;;25.69;18.65;101903.22;5078872;28;20083;-56
2023/06/04 11:00:06;;;;;;;4.57;0.75;;;;;;;26.15;18.36;101903.50;5064412;28;20501;-56
2023/06/04 11:02:32;;;;;;;4.65;0.60;;;;;;;25.76;18.40;101903.50;5071783;28;20083;-58
2023/06/04 11:05:06;;;;;;;1.52;0.68;;;;;;;27.38;17.47;101904.38;5071808;28;20486;-56
2023/06/04 11:07:44;;;;;;;2.88;1.10;;;;;;;28.49;16.80;101901.28;5071806;28;20058;-56
2023/06/04 11:10:12;;;;;;;3.72;1.00;;;;;;;27.76;17.09;101899.69;5072295;28;20047;-56
2023/06/04 11:12:52;;;;;;;2.22;0.60;;;;;;;27.10;16.94;101898.94;5072887;28;20135;-55
2023/06/04 11:15:19;;;;;;;3.08;0.55;;;;;;;26.34;17.43;101902.63;5055028;28;20052;-55
2023/06/04 11:17:54;;;;;;;4.45;0.60;;;;;;;27.60;16.52;101903.94;5070503;28;20512;-56
2023/06/04 11:20:22;;;;;;;3.65;0.93;;;;;;;28.57;16.03;101895.94;5071612;28;20079;-56
2023/06/04 11:22:54;;;;;;;1.88;0.65;;;;;;;28.53;15.70;101889.94;5070744;28;20056;-56
2023/06/04 11:25:22;;;;;;;17.95;11.20;;;;;;;28.83;15.20;101890.47;5072453;28;20079;-56
2023/06/04 11:27:50;;;;;;;4.90;1.98;;;;;;;28.70;15.61;101888.19;5075392;28;20056;-56
2023/06/04 11:30:16;;;;;;;3.50;0.80;;;;;;;28.72;15.38;101894.34;5073033;28;20036;-55